Time;durP1;ratioP1;P1;durP2;ratioP2;P2;SDS_P1;SDS_P2;PMS_P1;PMS_P2;Temp;Humidity;BMP_temperature;BMP_pressure;BME280_temperature;BME280_humidity;BME280_pressure;Samples;Min_cycle;Max_cycle;Signal;HPM_P1;HPM_P2
2023/08/23 00:02:09;;;;;;;9.70;4.00;;;;;;;20.63;55.23;100189.39;108022;1257;74172;-67
2023/08/23 00:04:36;;;;;;;8.00;4.10;;;;;;;20.52;55.60;100183.98;108044;1257;70330;-66
2023/08/23 00:07:04;;;;;;;11.70;4.40;;;;;;;20.49;55.75;100189.17;108110;1252;71443;-67
2023/08/23 00:09:31;;;;;;;8.10;4.10;;;;;;;20.47;56.18;100189.39;108125;1253;61672;-67
2023/08/23 00:11:58;;;;;;;5.40;3.70;;;;;;;20.36;56.52;100192.39;108038;1252;60395;-66
2023/08/23 00:14:26;;;;;;;5.80;3.90;;;;;;;20.40;56.59;100197.75;108018;1253;74082;-67
2023/08/23 00:16:54;;;;;;;5.10;4.60;;;;;;;20.48;56.44;100199.77;108118;1253;69441;-68
2023/08/23 00:19:21;;;;;;;7.10;3.70;;;;;;;20.52;56.29;100204.80;108127;1253;71480;-67
2023/08/23 00:21:49;;;;;;;12.10;4.60;;;;;;;20.50;56.42;100204.64;108101;1253;61018;-67
2023/08/23 00:24:18;;;;;;;7.70;4.20;;;;;;;20.71;55.54;100192.15;108095;1252;60286;-68
2023/08/23 00:26:46;;;;;;;6.50;3.80;;;;;;;20.78;55.04;100191.46;108161;1252;72951;-66
2023/08/23 00:29:14;;;;;;;8.10;4.20;;;;;;;20.71;55.22;100196.63;108064;1253;69765;-67
2023/08/23 00:31:42;;;;;;;8.00;4.30;;;;;;;20.70;55.20;100190.98;108080;1253;71367;-67
2023/08/23 00:34:10;;;;;;;8.40;4.40;;;;;;;20.73;55.00;100187.52;108062;1253;61832;-66
2023/08/23 00:36:39;;;;;;;11.40;5.20;;;;;;;20.71;54.97;100194.27;108080;1253;59285;-66
2023/08/23 00:39:06;;;;;;;6.90;4.10;;;;;;;20.71;55.08;100197.27;108069;1253;73911;-66
2023/08/23 00:41:34;;;;;;;9.50;4.40;;;;;;;20.69;55.33;100199.23;108130;1253;69457;-66
2023/08/23 00:44:03;;;;;;;7.60;4.50;;;;;;;20.52;55.60;100196.27;108048;1253;72822;-67
2023/08/23 00:46:30;;;;;;;4.40;3.60;;;;;;;20.24;56.63;100204.15;108075;1253;61662;-66
2023/08/23 00:48:58;;;;;;;6.20;4.00;;;;;;;20.11;57.27;100215.05;108117;1253;59964;-66
2023/08/23 00:51:25;;;;;;;7.50;4.70;;;;;;;20.25;56.88;100213.45;108090;1253;72630;-66
2023/08/23 00:53:53;;;;;;;5.70;4.20;;;;;;;20.14;57.07;100215.59;107923;1252;70375;-66
2023/08/23 00:56:20;;;;;;;9.40;4.40;;;;;;;20.07;57.15;100213.80;108095;1253;72748;-64
2023/08/23 00:58:48;;;;;;;8.70;4.80;;;;;;;20.03;57.26;100205.92;108053;1253;61634;-64
2023/08/23 01:01:15;;;;;;;10.60;4.70;;;;;;;20.00;57.42;100203.46;108073;1253;60445;-65
2023/08/23 01:03:42;;;;;;;7.20;4.10;;;;;;;20.02;57.33;100196.04;108073;1252;72329;-65
2023/08/23 01:06:16;;;;;;;6.60;4.30;;;;;;;20.13;57.21;100195.47;108147;1252;70268;-65
2023/08/23 01:09:08;;;;;;;8.60;4.40;;;;;;;20.39;56.56;100190.31;108127;1252;72691;-66
2023/08/23 01:11:49;;;;;;;9.30;4.80;;;;;;;20.44;56.39;100181.41;108016;1253;61697;-66
2023/08/23 01:14:22;;;;;;;8.00;4.50;;;;;;;20.33;56.42;100172.80;108036;1252;60241;-66
2023/08/23 01:16:49;;;;;;;6.50;4.40;;;;;;;20.23;56.61;100167.27;108033;1253;72661;-67
2023/08/23 01:19:43;;;;;;;6.20;3.60;;;;;;;20.29;56.49;100174.16;107947;1260;69998;-67
2023/08/23 01:22:22;;;;;;;7.10;3.70;;;;;;;20.23;57.20;100175.16;108102;1253;72476;-65
2023/08/23 01:24:51;;;;;;;9.70;5.00;;;;;;;20.18;57.55;100183.17;108103;1253;60385;-67
2023/08/23 01:27:19;;;;;;;8.80;4.60;;;;;;;20.19;57.41;100185.28;108138;1252;60132;-67
2023/08/23 01:29:47;;;;;;;10.40;4.60;;;;;;;20.01;57.89;100186.11;108133;1253;73362;-67
2023/08/23 01:32:21;;;;;;;8.10;4.40;;;;;;;20.31;57.51;100194.67;108095;1253;69962;-67
2023/08/23 01:34:51;;;;;;;7.80;4.50;;;;;;;20.38;57.32;100185.73;108001;1253;72386;-67
2023/08/23 01:37:20;;;;;;;6.70;4.30;;;;;;;20.56;56.94;100179.58;108043;1253;60442;-68
2023/08/23 01:39:47;;;;;;;6.00;4.70;;;;;;;20.27;57.60;100177.52;107972;1252;60979;-67
2023/08/23 01:42:15;;;;;;;11.20;4.70;;;;;;;20.22;57.70;100168.25;108010;1253;72890;-65
2023/08/23 01:44:43;;;;;;;8.10;4.90;;;;;;;20.19;57.90;100162.23;108016;1253;69964;-67
2023/08/23 01:47:10;;;;;;;7.60;4.30;;;;;;;20.23;57.80;100168.23;107967;1253;72774;-67
2023/08/23 01:49:38;;;;;;;8.20;4.70;;;;;;;20.30;57.56;100176.02;108159;1253;61275;-66
2023/08/23 01:52:05;;;;;;;7.60;4.40;;;;;;;20.31;57.61;100177.77;107996;1253;60384;-66
2023/08/23 01:54:33;;;;;;;5.50;4.30;;;;;;;20.47;57.52;100174.52;108028;1253;74018;-66
2023/08/23 01:57:00;;;;;;;11.20;4.40;;;;;;;20.40;57.64;100166.54;108013;1253;69931;-67
2023/08/23 01:59:28;;;;;;;5.10;3.60;;;;;;;20.42;57.49;100165.83;107968;1253;71434;-68
2023/08/23 02:01:55;;;;;;;7.80;4.10;;;;;;;20.38;57.87;100164.75;108099;1252;61731;-67
2023/08/23 02:04:23;;;;;;;7.60;4.30;;;;;;;20.33;58.05;100160.81;108099;1253;60385;-67
2023/08/23 02:06:50;;;;;;;5.10;3.90;;;;;;;20.43;57.83;100173.79;108113;1253;73954;-67
2023/08/23 02:09:18;;;;;;;9.10;4.80;;;;;;;20.40;58.06;100172.45;108053;1257;68890;-67
2023/08/23 02:11:45;;;;;;;6.70;4.50;;;;;;;20.42;58.14;100187.95;108110;1253;72634;-65
2023/08/23 02:14:12;;;;;;;6.80;4.00;;;;;;;20.49;57.97;100185.42;108060;1253;61683;-67
2023/08/23 02:16:40;;;;;;;13.30;4.60;;;;;;;20.52;57.95;100178.78;108032;1258;60414;-67
2023/08/23 02:19:07;;;;;;;10.10;4.60;;;;;;;20.57;57.80;100174.34;108238;1252;72686;-66
2023/08/23 02:21:35;;;;;;;9.50;4.10;;;;;;;20.83;57.33;100178.73;108142;1254;70111;-64
2023/08/23 02:24:03;;;;;;;9.60;4.20;;;;;;;20.94;56.94;100181.42;108180;1253;72549;-67
2023/08/23 02:26:31;;;;;;;7.00;3.70;;;;;;;20.94;56.91;100178.35;108266;1255;61657;-66
2023/08/23 02:28:58;;;;;;;8.20;4.20;;;;;;;20.79;57.55;100178.13;108107;1253;60295;-66
2023/08/23 02:31:28;;;;;;;7.90;3.90;;;;;;;20.78;57.65;100183.02;108150;1253;72364;-68
2023/08/23 02:33:55;;;;;;;6.50;4.20;;;;;;;21.02;57.03;100183.46;108075;1253;70961;-67
2023/08/23 02:36:22;;;;;;;9.80;4.30;;;;;;;21.04;56.69;100177.40;107992;1253;71321;-69
2023/08/23 02:38:50;;;;;;;9.40;4.20;;;;;;;21.40;55.90;100170.63;107872;1253;61694;-67
2023/08/23 02:41:17;;;;;;;8.40;4.10;;;;;;;21.58;55.36;100167.55;108148;1253;60282;-67
2023/08/23 02:43:44;;;;;;;7.10;3.60;;;;;;;21.32;55.85;100167.52;107922;1253;73796;-66
2023/08/23 02:46:12;;;;;;;8.20;3.90;;;;;;;21.29;56.39;100163.42;108114;1253;70448;-67
2023/08/23 02:48:40;;;;;;;9.10;4.70;;;;;;;21.37;55.99;100157.42;108233;1253;72790;-66
2023/08/23 02:51:07;;;;;;;6.90;4.00;;;;;;;21.46;55.75;100160.33;108220;1253;61629;-67
2023/08/23 02:53:35;;;;;;;8.80;4.60;;;;;;;21.40;56.04;100158.23;108045;1253;60130;-66
2023/08/23 02:56:03;;;;;;;6.60;3.80;;;;;;;21.45;55.45;100171.08;108111;1253;73816;-67
2023/08/23 02:58:30;;;;;;;8.50;3.80;;;;;;;21.41;55.49;100182.87;108073;1257;68721;-66
2023/08/23 03:01:00;;;;;;;12.70;4.60;;;;;;;21.57;55.37;100183.16;108118;1256;72715;-67
2023/08/23 03:03:29;;;;;;;7.30;4.30;;;;;;;21.80;54.52;100177.48;108009;1253;61639;-67
2023/08/23 03:05:58;;;;;;;9.40;4.00;;;;;;;21.81;54.50;100179.08;108077;1252;60552;-67
2023/08/23 03:08:26;;;;;;;6.20;4.50;;;;;;;21.44;55.22;100174.92;108151;1253;73844;-67
2023/08/23 03:11:03;;;;;;;6.10;4.00;;;;;;;20.95;56.47;100189.77;108100;1253;70118;-67
2023/08/23 03:13:30;;;;;;;6.70;3.90;;;;;;;20.97;57.15;100206.01;108184;1253;72768;-67
2023/08/23 03:15:58;;;;;;;7.60;4.20;;;;;;;21.01;56.91;100204.59;107944;1253;61747;-67
2023/08/23 03:18:26;;;;;;;6.10;3.70;;;;;;;20.90;57.04;100207.08;108113;1253;60434;-68
2023/08/23 03:20:55;;;;;;;6.50;3.60;;;;;;;20.92;56.86;100209.75;108058;1253;73857;-67
2023/08/23 03:23:23;;;;;;;5.70;3.70;;;;;;;20.94;56.71;100197.51;108087;1253;70096;-67
2023/08/23 03:25:50;;;;;;;7.50;3.70;;;;;;;20.87;57.06;100192.88;108097;1252;72065;-66
2023/08/23 03:28:19;;;;;;;8.50;4.30;;;;;;;20.87;56.98;100193.04;107988;1253;60465;-67
2023/08/23 03:30:47;;;;;;;6.00;3.40;;;;;;;20.90;56.75;100197.42;108220;1252;59692;-66
2023/08/23 03:33:15;;;;;;;6.70;3.70;;;;;;;21.11;56.58;100205.25;108011;1252;73949;-67
2023/08/23 03:35:42;;;;;;;6.50;4.00;;;;;;;21.19;56.06;100211.89;108092;1253;69551;-68
2023/08/23 03:38:10;;;;;;;6.30;3.60;;;;;;;20.88;56.60;100208.52;108127;1253;72750;-66
2023/08/23 03:40:38;;;;;;;6.60;3.90;;;;;;;20.93;56.74;100206.86;108204;1252;61717;-66
2023/08/23 03:43:05;;;;;;;7.10;3.40;;;;;;;21.03;56.44;100202.46;108101;1253;59606;-67
2023/08/23 03:45:33;;;;;;;8.20;3.60;;;;;;;21.09;56.42;100205.59;108184;1253;73800;-68
2023/08/23 03:48:02;;;;;;;7.80;4.00;;;;;;;21.16;56.07;100203.59;108224;1253;70069;-67
2023/08/23 03:50:29;;;;;;;7.20;2.90;;;;;;;21.32;55.45;100203.77;108161;1253;73965;-67
2023/08/23 03:52:57;;;;;;;7.80;3.90;;;;;;;21.20;55.74;100205.61;108225;1253;60395;-67
2023/08/23 03:55:24;;;;;;;6.50;3.80;;;;;;;21.30;55.57;100212.48;108231;1252;59001;-66
2023/08/23 03:57:51;;;;;;;9.20;3.90;;;;;;;21.71;55.07;100210.55;108163;1253;72706;-67
2023/08/23 04:00:19;;;;;;;14.70;4.70;;;;;;;22.01;54.77;100209.66;108244;1253;70116;-67
2023/08/23 04:02:47;;;;;;;8.90;3.60;;;;;;;22.49;54.28;100209.66;108150;1253;73046;-68
2023/08/23 04:05:14;;;;;;;13.10;3.80;;;;;;;22.90;53.27;100209.85;108117;1253;62134;-67
2023/08/23 04:07:42;;;;;;;11.90;3.70;;;;;;;23.15;52.08;100204.98;107982;1258;60518;-67
2023/08/23 04:10:09;;;;;;;10.00;3.20;;;;;;;23.49;51.61;100201.20;108121;1253;72683;-67
2023/08/23 04:12:37;;;;;;;15.80;3.50;;;;;;;23.95;51.05;100199.92;107977;1253;70839;-67
2023/08/23 04:15:06;;;;;;;12.90;3.50;;;;;;;24.40;49.58;100202.12;108088;1253;72622;-68
2023/08/23 04:17:33;;;;;;;14.70;3.70;;;;;;;24.73;48.37;100204.19;108075;1253;61674;-68
2023/08/23 04:20:01;;;;;;;13.90;3.50;;;;;;;25.14;47.27;100202.23;108120;1253;60086;-68
2023/08/23 04:22:31;;;;;;;9.70;2.80;;;;;;;25.53;46.12;100200.78;108139;1253;74235;-68
2023/08/23 04:24:58;;;;;;;6.20;2.30;;;;;;;25.92;45.11;100195.86;108233;1253;70534;-66
2023/08/23 04:27:26;;;;;;;5.60;2.80;;;;;;;26.36;43.40;100192.23;108197;1253;72597;-67
2023/08/23 04:29:53;;;;;;;5.60;2.30;;;;;;;27.03;42.48;100188.61;108137;1253;61665;-66
2023/08/23 04:32:21;;;;;;;8.60;2.60;;;;;;;27.57;41.30;100187.38;108291;1253;59989;-67
2023/08/23 04:34:48;;;;;;;4.20;2.40;;;;;;;28.12;40.06;100189.52;108088;1254;73980;-68
2023/08/23 04:37:16;;;;;;;5.90;2.70;;;;;;;28.58;38.33;100188.40;108181;1253;72574;-68
2023/08/23 04:39:44;;;;;;;5.00;2.20;;;;;;;28.89;37.73;100187.08;108323;1254;72974;-68
2023/08/23 04:42:11;;;;;;;4.90;2.30;;;;;;;29.27;36.88;100189.29;108179;1254;60222;-68
2023/08/23 04:44:38;;;;;;;4.70;2.20;;;;;;;29.72;36.37;100189.29;108222;1253;60312;-68
2023/08/23 04:47:06;;;;;;;3.60;2.00;;;;;;;30.35;35.28;100180.77;108178;1254;73907;-69
2023/08/23 04:49:34;;;;;;;5.40;2.20;;;;;;;30.85;34.16;100186.52;108180;1258;69325;-69
2023/08/23 04:52:02;;;;;;;6.90;2.10;;;;;;;31.11;33.62;100193.73;108358;1253;72792;-68
2023/08/23 04:54:30;;;;;;;4.50;1.90;;;;;;;31.44;33.00;100195.51;108201;1253;60427;-68
2023/08/23 04:56:58;;;;;;;5.80;2.00;;;;;;;32.01;32.30;100194.38;108158;1252;60379;-68
2023/08/23 04:59:26;;;;;;;3.40;1.70;;;;;;;32.41;31.87;100193.04;108203;1253;74256;-69
2023/08/23 05:01:54;;;;;;;6.10;1.90;;;;;;;32.99;30.68;100193.86;108067;1253;70230;-69
2023/08/23 05:04:23;;;;;;;4.30;1.70;;;;;;;33.22;30.30;100184.63;108125;1254;71436;-69
2023/08/23 05:09:25;;;;;;;5.00;1.80;;;;;;;32.22;31.23;100182.52;104849;1290;602287;-68
2023/08/23 05:11:53;;;;;;;4.30;2.00;;;;;;;33.06;29.83;100194.45;107253;1267;59956;-67
2023/08/23 05:14:21;;;;;;;5.30;1.90;;;;;;;33.40;29.46;100198.02;107254;1267;60329;-67
2023/08/23 05:16:49;;;;;;;6.40;1.50;;;;;;;33.90;28.98;100199.39;107302;1264;71039;-69
2023/08/23 05:19:16;;;;;;;4.40;1.80;;;;;;;34.19;28.59;100201.74;107268;1264;60180;-69
2023/08/23 05:21:44;;;;;;;7.90;1.80;;;;;;;34.47;27.97;100202.33;107280;1267;62434;-69
2023/08/23 05:24:13;;;;;;;4.50;1.80;;;;;;;34.82;27.45;100193.67;107104;1264;261602;-68
2023/08/23 05:26:40;;;;;;;6.30;1.70;;;;;;;35.31;26.94;100191.55;107527;1260;58810;-69
2023/08/23 05:29:07;;;;;;;6.60;1.80;;;;;;;35.58;26.48;100189.12;107546;1260;63357;-68
2023/08/23 05:31:35;;;;;;;4.60;1.50;;;;;;;35.89;25.92;100191.46;107568;1260;61296;-69
2023/08/23 05:34:04;;;;;;;4.70;1.90;;;;;;;36.19;25.61;100193.63;107593;1264;63661;-69
2023/08/23 05:36:31;;;;;;;5.30;1.90;;;;;;;36.44;25.30;100189.45;107558;1261;60617;-69
2023/08/23 05:39:01;;;;;;;4.60;1.50;;;;;;;36.53;25.09;100193.64;107538;1260;59528;-68
2023/08/23 05:41:30;;;;;;;2.40;1.50;;;;;;;36.39;24.93;100195.40;107510;1260;62855;-68
2023/08/23 05:43:57;;;;;;;6.90;2.00;;;;;;;36.52;24.86;100199.31;107558;1261;61347;-70
2023/08/23 05:46:25;;;;;;;3.50;1.60;;;;;;;36.66;24.55;100199.72;107542;1260;63745;-69
2023/08/23 05:48:53;;;;;;;5.00;1.60;;;;;;;36.82;24.01;100194.95;107947;1253;59621;-70
2023/08/23 05:51:20;;;;;;;3.00;1.50;;;;;;;36.84;23.84;100191.23;108034;1253;60163;-69
2023/08/23 05:53:48;;;;;;;6.70;2.20;;;;;;;37.01;23.80;100195.86;108047;1254;62818;-69
2023/08/23 05:56:15;;;;;;;3.90;1.60;;;;;;;37.39;23.51;100192.31;108013;1253;61851;-70
2023/08/23 05:58:42;;;;;;;4.40;1.50;;;;;;;37.85;23.32;100191.05;108084;1253;62467;-70
2023/08/23 06:01:10;;;;;;;2.70;1.80;;;;;;;37.81;23.31;100193.15;108118;1253;59516;-70
2023/08/23 06:03:38;;;;;;;4.40;1.60;;;;;;;37.52;23.22;100194.22;108053;1253;59484;-70
2023/08/23 06:06:05;;;;;;;4.00;1.70;;;;;;;37.09;23.43;100191.12;108005;1253;64326;-69
2023/08/23 06:08:33;;;;;;;4.50;1.60;;;;;;;36.58;24.01;100189.30;107994;1254;60084;-68
2023/08/23 06:11:01;;;;;;;5.70;2.00;;;;;;;36.24;24.59;100184.64;108002;1253;62494;-69
2023/08/23 06:13:29;;;;;;;4.50;1.30;;;;;;;36.07;24.69;100188.31;107961;1253;59103;-68
2023/08/23 06:15:59;;;;;;;2.60;1.40;;;;;;;36.17;24.71;100187.48;108016;1254;59647;-68
2023/08/23 06:18:26;;;;;;;3.40;1.20;;;;;;;36.72;24.70;100182.89;108017;1253;64181;-69
2023/08/23 06:20:54;;;;;;;3.30;1.80;;;;;;;37.12;24.14;100185.23;108066;1254;60245;-70
2023/08/23 06:23:21;;;;;;;5.10;1.60;;;;;;;37.48;23.74;100186.26;108007;1254;62469;-69
2023/08/23 06:25:50;;;;;;;4.00;1.50;;;;;;;37.91;23.33;100183.23;107915;1253;59608;-69
2023/08/23 06:28:17;;;;;;;4.00;1.60;;;;;;;38.29;23.14;100179.36;107968;1254;59780;-70
2023/08/23 06:30:45;;;;;;;4.90;1.60;;;;;;;38.64;22.27;100174.96;107957;1254;66404;-68
2023/08/23 06:33:12;;;;;;;3.00;1.30;;;;;;;38.68;21.63;100178.31;108015;1254;61519;-70
2023/08/23 06:35:41;;;;;;;4.00;1.30;;;;;;;38.72;21.58;100176.63;107945;1256;62633;-69
2023/08/23 06:38:08;;;;;;;7.20;1.40;;;;;;;38.93;21.45;100172.50;107987;1254;59105;-70
2023/08/23 06:40:35;;;;;;;4.30;1.50;;;;;;;39.23;21.37;100174.98;107990;1254;59612;-69
2023/08/23 06:43:03;;;;;;;2.80;1.20;;;;;;;39.40;21.18;100171.50;108058;1254;62885;-69
2023/08/23 06:45:32;;;;;;;10.20;1.60;;;;;;;39.57;20.96;100168.79;108013;1259;61397;-70
2023/08/23 06:48:01;;;;;;;2.70;1.30;;;;;;;39.71;20.88;100167.23;107959;1254;63714;-71
2023/08/23 06:50:29;;;;;;;3.00;1.20;;;;;;;39.67;20.62;100168.30;107940;1253;59682;-68
2023/08/23 06:52:56;;;;;;;6.40;1.30;;;;;;;39.60;20.71;100176.77;107994;1254;59507;-70
2023/08/23 06:55:25;;;;;;;3.40;1.40;;;;;;;39.54;20.86;100177.48;107973;1254;63548;-70
2023/08/23 06:57:53;;;;;;;4.60;1.50;;;;;;;39.50;20.89;100178.96;108012;1254;61510;-70
2023/08/23 07:00:22;;;;;;;4.00;1.30;;;;;;;39.56;21.00;100178.80;108292;1251;63764;-69
2023/08/23 07:02:51;;;;;;;5.70;1.40;;;;;;;39.70;21.07;100172.34;108266;1251;59520;-71
2023/08/23 07:05:19;;;;;;;5.70;1.80;;;;;;;39.93;20.78;100166.90;108261;1251;59537;-71
2023/08/23 07:07:47;;;;;;;4.20;1.40;;;;;;;40.18;20.25;100165.83;108261;1251;62820;-68
2023/08/23 07:10:15;;;;;;;7.10;1.40;;;;;;;40.52;19.50;100167.36;108124;1251;61440;-70
2023/08/23 07:12:54;;;;;;;5.50;1.70;;;;;;;40.39;19.54;100171.91;108357;1251;62440;-69
2023/08/23 07:15:22;;;;;;;2.40;1.20;;;;;;;40.23;19.72;100175.63;108285;1251;59528;-69
2023/08/23 07:17:49;;;;;;;4.20;1.30;;;;;;;39.99;19.41;100174.55;108306;1251;59640;-70
2023/08/23 07:20:17;;;;;;;3.60;1.10;;;;;;;39.26;19.82;100172.63;108264;1251;64208;-69
2023/08/23 07:22:44;;;;;;;2.90;1.10;;;;;;;38.32;20.73;100172.27;108307;1251;61363;-71
2023/08/23 07:25:12;;;;;;;3.70;1.10;;;;;;;38.13;21.25;100176.84;108229;1254;63816;-69
2023/08/23 07:27:39;;;;;;;3.70;1.30;;;;;;;38.50;21.02;100172.10;108119;1251;59563;-68
2023/08/23 07:30:07;;;;;;;4.60;1.40;;;;;;;38.88;20.54;100167.34;108235;1251;59507;-70
2023/08/23 07:32:34;;;;;;;2.40;0.80;;;;;;;39.10;20.25;100171.30;108204;1251;64122;-69
2023/08/23 07:35:03;;;;;;;3.20;1.10;;;;;;;39.44;19.81;100169.97;108042;1251;60168;-68
2023/08/23 07:37:30;;;;;;;5.50;1.20;;;;;;;39.59;19.60;100170.81;108198;1252;63820;-69
2023/08/23 07:39:58;;;;;;;1.70;1.00;;;;;;;39.81;19.61;100163.79;108222;1251;59605;-70
2023/08/23 07:42:27;;;;;;;3.60;1.20;;;;;;;39.99;19.23;100166.75;108295;1251;59467;-69
2023/08/23 07:44:55;;;;;;;6.30;1.30;;;;;;;40.19;19.13;100164.69;108300;1251;62838;-69
2023/08/23 07:47:23;;;;;;;3.00;1.60;;;;;;;40.54;18.82;100160.01;108273;1251;61370;-70
2023/08/23 07:49:51;;;;;;;5.50;1.50;;;;;;;40.62;18.82;100165.02;108211;1253;63799;-68
2023/08/23 07:52:19;;;;;;;6.90;1.30;;;;;;;40.78;18.55;100172.13;108276;1251;59528;-69
2023/08/23 07:54:46;;;;;;;3.50;1.40;;;;;;;40.73;18.46;100170.34;108272;1251;59654;-70
2023/08/23 07:57:13;;;;;;;4.40;1.30;;;;;;;40.63;18.64;100169.24;108312;1251;64220;-70
2023/08/23 07:59:41;;;;;;;4.80;1.30;;;;;;;40.36;18.66;100172.09;108208;1251;71068;-71
2023/08/23 08:02:08;;;;;;;5.40;1.70;;;;;;;40.39;18.52;100172.20;108160;1256;63803;-69
2023/08/23 08:04:36;;;;;;;2.70;1.40;;;;;;;40.12;18.29;100170.55;108197;1251;59509;-70
2023/08/23 08:07:03;;;;;;;3.70;1.30;;;;;;;40.01;18.47;100172.83;108211;1251;59803;-70
2023/08/23 08:09:31;;;;;;;5.00;1.40;;;;;;;39.99;18.83;100171.59;108196;1251;73035;-70
2023/08/23 08:11:58;;;;;;;5.90;1.60;;;;;;;40.05;18.95;100168.56;108257;1251;60156;-69
2023/08/23 08:14:25;;;;;;;8.70;1.60;;;;;;;40.09;18.78;100166.96;108318;1253;64198;-70
2023/08/23 08:16:53;;;;;;;2.60;1.10;;;;;;;39.92;18.75;100165.02;108200;1253;60011;-69
2023/08/23 08:19:20;;;;;;;3.20;1.10;;;;;;;39.47;18.90;100171.45;108342;1251;59519;-70
2023/08/23 08:21:47;;;;;;;5.40;1.10;;;;;;;39.20;19.28;100170.80;108211;1251;64112;-69
2023/08/23 08:24:15;;;;;;;7.00;1.50;;;;;;;38.91;19.48;100165.92;108215;1251;61358;-70
2023/08/23 08:26:42;;;;;;;4.90;1.50;;;;;;;38.89;19.66;100170.12;108137;1253;62499;-68
2023/08/23 08:29:09;;;;;;;5.10;1.40;;;;;;;38.84;19.78;100168.52;108191;1253;59993;-68
2023/08/23 08:31:40;;;;;;;4.70;1.50;;;;;;;38.54;19.74;100174.11;108140;1253;59139;-69
2023/08/23 08:34:08;;;;;;;3.50;1.40;;;;;;;38.01;19.70;100176.58;108114;1253;75436;-68
2023/08/23 08:36:40;;;;;;;3.30;1.30;;;;;;;37.53;20.15;100179.64;108089;1253;61573;-68
2023/08/23 08:39:08;;;;;;;5.50;1.50;;;;;;;37.64;20.43;100176.27;108091;1253;62420;-69
2023/08/23 08:41:36;;;;;;;4.60;1.70;;;;;;;37.76;20.71;100169.60;108103;1253;59551;-68
2023/08/23 08:44:03;;;;;;;5.10;1.20;;;;;;;37.58;20.53;100170.60;108133;1253;59515;-68
2023/08/23 08:46:31;;;;;;;5.10;1.60;;;;;;;38.23;19.96;100163.42;108122;1253;62819;-69
2023/08/23 08:48:58;;;;;;;5.10;1.80;;;;;;;38.47;19.83;100157.27;108105;1253;60277;-69
2023/08/23 08:51:28;;;;;;;6.70;1.60;;;;;;;38.42;19.81;100162.85;108093;1253;63758;-68
2023/08/23 08:53:55;;;;;;;10.00;1.60;;;;;;;38.49;19.44;100167.77;108116;1253;59503;-67
2023/08/23 08:56:23;;;;;;;5.10;1.40;;;;;;;38.41;19.44;100167.23;107910;1252;59537;-69
2023/08/23 08:58:53;;;;;;;5.30;1.40;;;;;;;38.65;19.45;100160.63;108158;1253;64131;-70
2023/08/23 09:01:20;;;;;;;5.50;1.30;;;;;;;38.73;19.57;100157.23;108006;1253;61392;-68
2023/08/23 09:03:49;;;;;;;3.60;1.40;;;;;;;38.61;19.51;100158.28;108101;1253;63688;-68
2023/08/23 09:06:17;;;;;;;6.10;1.60;;;;;;;38.62;19.35;100160.45;108141;1253;59616;-69
2023/08/23 09:08:44;;;;;;;4.60;1.20;;;;;;;38.99;19.24;100166.02;108153;1253;59524;-67
2023/08/23 09:11:12;;;;;;;5.00;1.70;;;;;;;39.21;18.66;100156.11;107914;1253;65588;-69
2023/08/23 09:13:39;;;;;;;4.00;1.20;;;;;;;39.43;18.64;100156.21;108117;1253;61339;-67
2023/08/23 09:16:07;;;;;;;5.00;1.60;;;;;;;39.52;18.12;100153.09;108151;1253;63704;-67
2023/08/23 09:18:34;;;;;;;6.40;1.40;;;;;;;38.96;18.35;100155.32;108209;1253;60553;-68
2023/08/23 09:21:02;;;;;;;5.00;1.40;;;;;;;38.76;19.03;100155.88;108116;1256;60286;-68
2023/08/23 09:23:34;;;;;;;3.40;1.60;;;;;;;38.75;19.41;100155.02;108371;1253;63656;-68
2023/08/23 09:26:01;;;;;;;6.40;1.50;;;;;;;38.83;19.37;100149.48;108468;1251;68993;-69
2023/08/23 09:28:29;;;;;;;2.90;1.50;;;;;;;39.03;19.05;100150.46;108520;1251;63114;-70
2023/08/23 09:30:56;;;;;;;6.40;1.40;;;;;;;38.90;19.18;100157.67;108474;1251;58506;-69
2023/08/23 09:33:24;;;;;;;4.60;1.90;;;;;;;38.80;19.09;100158.77;108291;1251;60345;-70
2023/08/23 09:35:52;;;;;;;5.50;1.60;;;;;;;38.59;19.43;100163.48;108276;1251;64439;-70
2023/08/23 09:38:20;;;;;;;3.10;1.50;;;;;;;38.46;19.43;100158.70;108309;1251;60323;-69
2023/08/23 09:40:48;;;;;;;2.80;1.40;;;;;;;38.25;19.71;100158.48;108164;1251;63949;-69
2023/08/23 09:43:16;;;;;;;7.30;1.70;;;;;;;37.90;19.90;100155.63;108239;1254;60389;-71
2023/08/23 09:45:44;;;;;;;4.50;1.50;;;;;;;37.56;20.64;100151.54;108233;1251;59618;-68
2023/08/23 09:48:12;;;;;;;4.20;1.50;;;;;;;37.46;20.92;100149.44;108150;1251;63675;-71
2023/08/23 09:50:39;;;;;;;4.20;1.40;;;;;;;37.43;20.34;100155.55;108127;1251;61658;-70
2023/08/23 09:53:12;;;;;;;4.50;1.40;;;;;;;37.25;20.46;100156.55;108012;1251;62489;-70
2023/08/23 09:55:39;;;;;;;4.20;1.50;;;;;;;37.31;20.75;100151.55;108236;1251;61039;-70
2023/08/23 09:58:07;;;;;;;5.00;1.80;;;;;;;37.77;20.64;100152.48;108131;1251;59599;-69
2023/08/23 10:00:34;;;;;;;5.50;1.50;;;;;;;38.24;20.55;100148.06;108226;1251;64899;-69
2023/08/23 10:03:02;;;;;;;4.60;1.40;;;;;;;38.81;19.75;100142.94;108271;1251;60395;-70
2023/08/23 10:05:29;;;;;;;4.60;1.60;;;;;;;39.04;19.15;100139.42;108208;1251;63728;-70
2023/08/23 10:07:57;;;;;;;5.40;1.50;;;;;;;38.78;19.14;100142.00;108042;1260;59133;-69
2023/08/23 10:10:25;;;;;;;2.90;1.10;;;;;;;38.08;19.44;100147.92;108261;1251;61057;-69
2023/08/23 10:12:54;;;;;;;3.90;1.40;;;;;;;37.80;19.98;100141.45;108210;1251;64989;-69
2023/08/23 10:15:32;;;;;;;3.40;1.30;;;;;;;38.03;19.82;100135.85;108256;1251;60448;-69
2023/08/23 10:18:02;;;;;;;3.10;1.30;;;;;;;38.55;19.14;100133.21;108173;1253;63766;-69
2023/08/23 10:20:33;;;;;;;4.40;1.60;;;;;;;38.46;18.38;100124.37;108263;1251;60308;-69
2023/08/23 10:23:00;;;;;;;6.50;1.20;;;;;;;37.87;19.05;100127.98;108204;1251;60504;-69
2023/08/23 10:25:31;;;;;;;6.00;1.60;;;;;;;37.70;19.69;100131.59;108193;1253;65198;-69
2023/08/23 10:27:59;;;;;;;;;;;;;;;37.62;19.95;100127.96;108151;1252;61759;-70
2023/08/23 10:30:28;;;;;;;4.80;1.30;;;;;;;37.96;19.59;100127.09;108144;1253;63674;-69
2023/08/23 10:33:09;;;;;;;3.20;1.40;;;;;;;38.13;19.22;100122.28;108030;1253;60553;-69
2023/08/23 10:35:37;;;;;;;3.70;1.20;;;;;;;38.03;19.43;100112.04;108159;1255;60303;-69
2023/08/23 10:38:05;;;;;;;3.20;1.20;;;;;;;38.03;19.61;100112.84;108106;1253;64946;-70
2023/08/23 10:40:32;;;;;;;3.40;1.20;;;;;;;37.46;19.93;100116.86;108124;1253;60333;-68
2023/08/23 10:43:18;;;;;;;4.50;1.20;;;;;;;36.83;20.55;100126.27;108142;1253;63771;-70
2023/08/23 10:45:52;;;;;;;5.30;1.50;;;;;;;36.88;21.11;100122.41;108104;1253;60402;-68
2023/08/23 10:48:21;;;;;;;4.20;1.50;;;;;;;36.85;21.04;100122.61;108089;1253;60395;-69
2023/08/23 10:50:48;;;;;;;3.10;1.40;;;;;;;36.73;20.79;100116.33;108166;1252;63721;-69
2023/08/23 10:53:16;;;;;;;2.20;1.30;;;;;;;36.84;20.84;100118.73;108050;1252;61368;-70
2023/08/23 10:55:44;;;;;;;2.20;1.10;;;;;;;37.06;20.71;100119.41;108136;1253;63726;-68
2023/08/23 10:58:13;;;;;;;4.80;1.40;;;;;;;37.13;20.01;100117.34;108087;1253;60384;-68
2023/08/23 11:00:41;;;;;;;2.70;1.20;;;;;;;37.34;20.16;100105.44;108270;1253;59501;-68
2023/08/23 11:03:12;;;;;;;7.90;1.50;;;;;;;37.82;19.99;100104.56;108168;1253;63730;-69
2023/08/23 11:05:40;;;;;;;3.60;1.40;;;;;;;37.99;19.67;100096.84;108078;1253;69031;-67
2023/08/23 11:08:08;;;;;;;3.20;1.20;;;;;;;38.17;19.84;100094.58;108092;1253;63737;-69
2023/08/23 11:10:36;;;;;;;2.70;1.10;;;;;;;38.36;19.26;100091.40;108084;1255;60982;-69
2023/08/23 11:13:05;;;;;;;3.30;1.40;;;;;;;38.29;19.11;100088.79;108137;1253;60170;-68
2023/08/23 11:15:33;;;;;;;4.10;1.50;;;;;;;38.08;19.24;100081.96;108179;1253;64949;-69
2023/08/23 11:18:01;;;;;;;3.20;1.20;;;;;;;37.59;19.46;100086.61;108076;1253;61885;-68
2023/08/23 11:20:28;;;;;;;5.30;1.80;;;;;;;37.68;19.62;100083.51;108238;1252;63900;-69
2023/08/23 11:22:56;;;;;;;4.20;1.40;;;;;;;37.86;19.42;100083.52;108155;1257;59769;-68
2023/08/23 11:25:23;;;;;;;3.50;1.10;;;;;;;38.20;19.34;100080.48;108170;1251;60451;-68